Time;durP1;ratioP1;P1;durP2;ratioP2;P2;SDS_P1;SDS_P2;PMS_P1;PMS_P2;Temp;Humidity;BMP_temperature;BMP_pressure;BME280_temperature;BME280_humidity;BME280_pressure;Samples;Min_cycle;Max_cycle;Signal;HPM_P1;HPM_P2
2021/08/24 00:00:31;;;;;;;5.10;1.52;;;;;;;16.24;69.26;102107.24;1664583;84;21003;-94
2021/08/24 00:03:03;;;;;;;2.37;1.30;;;;;;;16.25;69.15;102106.36;1699234;84;20972;-96
2021/08/24 00:05:33;;;;;;;6.10;1.67;;;;;;;16.25;69.08;102114.33;1689442;83;21001;-95
2021/08/24 00:07:59;;;;;;;2.55;1.50;;;;;;;16.24;68.95;102106.80;1660283;86;20996;-94
2021/08/24 00:10:31;;;;;;;2.95;1.50;;;;;;;16.24;68.84;102104.59;1667442;84;21011;-94
2021/08/24 00:12:59;;;;;;;4.87;1.10;;;;;;;16.22;68.78;102104.98;1689223;84;20991;-96
2021/08/24 00:15:29;;;;;;;8.98;1.30;;;;;;;16.22;68.69;102106.31;1689430;83;21749;-94
2021/08/24 00:17:56;;;;;;;3.65;1.20;;;;;;;16.20;68.63;102109.33;1699236;83;20959;-95
2021/08/24 00:20:25;;;;;;;4.55;1.72;;;;;;;16.19;68.57;102107.11;1689723;85;20976;-96
2021/08/24 00:22:52;;;;;;;3.08;1.40;;;;;;;16.19;68.52;102109.77;1689531;83;21507;-96
2021/08/24 00:25:18;;;;;;;5.95;1.30;;;;;;;16.19;68.46;102108.88;1699144;83;21507;-93
2021/08/24 00:27:45;;;;;;;4.15;1.77;;;;;;;16.19;68.47;102117.73;1688860;85;21751;-94
2021/08/24 00:30:16;;;;;;;3.12;1.30;;;;;;;16.23;68.48;102118.72;1688535;83;21039;-91
2021/08/24 00:32:42;;;;;;;6.10;1.75;;;;;;;16.26;68.46;102114.38;1698886;83;20963;-93
2021/08/24 00:35:09;;;;;;;5.08;1.72;;;;;;;16.31;68.45;102116.72;1689135;83;21001;-94
2021/08/24 00:37:36;;;;;;;6.53;1.72;;;;;;;16.36;68.42;102117.25;1698871;83;20995;-94
2021/08/24 00:40:07;;;;;;;4.80;1.80;;;;;;;16.39;68.38;102122.64;1689360;85;21699;-95
2021/08/24 00:42:36;;;;;;;2.52;1.52;;;;;;;16.41;68.38;102119.59;1689459;85;20977;-95
2021/08/24 00:45:06;;;;;;;3.75;1.42;;;;;;;16.45;68.35;102123.66;1699196;84;20967;-95
2021/08/24 00:47:36;;;;;;;5.62;1.65;;;;;;;16.47;68.34;102118.39;1718845;82;21014;-95
2021/08/24 00:50:26;;;;;;;4.95;1.65;;;;;;;16.49;68.29;102121.53;1718840;81;21049;-93
2021/08/24 00:53:06;;;;;;;2.55;1.50;;;;;;;16.52;68.19;102125.60;1688763;83;22391;-92
2021/08/24 00:55:32;;;;;;;5.03;1.60;;;;;;;16.54;68.04;102122.98;1663710;85;21017;-92
2021/08/24 00:58:05;;;;;;;4.00;1.40;;;;;;;16.54;67.96;102126.08;1667026;84;21453;-93
2021/08/24 01:00:33;;;;;;;6.37;1.80;;;;;;;16.54;67.84;102130.07;1688715;85;21023;-93
2021/08/24 01:03:08;;;;;;;3.40;1.30;;;;;;;16.52;67.77;102132.69;1688683;83;21033;-96
2021/08/24 01:05:40;;;;;;;3.62;1.65;;;;;;;16.50;67.66;102137.96;1667083;84;20995;-94
2021/08/24 01:08:35;;;;;;;3.75;1.45;;;;;;;16.45;67.52;102134.73;1688489;83;20989;-94
2021/08/24 01:11:22;;;;;;;7.67;1.47;;;;;;;16.40;67.53;102137.27;1693164;84;21428;-95
2021/08/24 01:14:15;;;;;;;3.62;1.60;;;;;;;16.38;67.44;102138.99;1695700;83;21409;-94
2021/08/24 01:16:45;;;;;;;2.40;1.55;;;;;;;16.37;67.35;102153.56;1689039;85;21024;-93
2021/08/24 01:19:36;;;;;;;1.98;1.35;;;;;;;16.32;67.22;102145.50;1689031;83;21744;-95
2021/08/24 01:22:42;;;;;;;3.80;1.30;;;;;;;16.29;67.16;102146.34;1700608;82;21625;-94
2021/08/24 01:25:54;;;;;;;4.65;1.35;;;;;;;16.27;67.10;102153.78;1700157;83;21518;-94
2021/08/24 01:28:40;;;;;;;3.37;1.40;;;;;;;16.25;67.01;102154.19;1605479;87;21193;-92
2021/08/24 01:31:24;;;;;;;4.65;1.35;;;;;;;16.23;67.00;102161.22;1515659;92;21069;-94
2021/08/24 01:34:22;;;;;;;3.83;1.77;;;;;;;16.21;66.89;102155.87;1531389;93;21969;-93
2021/08/24 01:37:05;;;;;;;5.12;1.57;;;;;;;16.18;66.74;102154.89;1530693;93;21147;-93
2021/08/24 01:39:42;;;;;;;6.85;1.50;;;;;;;16.16;66.68;102156.20;1531614;92;21035;-96
2021/08/24 01:42:15;;;;;;;3.17;1.30;;;;;;;16.12;66.57;102159.63;1532053;93;21027;-96
2021/08/24 01:45:11;;;;;;;2.95;1.35;;;;;;;16.06;66.52;102152.40;1531845;93;21015;-95
2021/08/24 01:47:48;;;;;;;3.20;1.52;;;;;;;16.05;66.60;102151.95;1531579;92;21808;-95
2021/08/24 01:50:42;;;;;;;2.33;1.52;;;;;;;16.07;66.55;102162.18;1531214;93;21022;-96
2021/08/24 01:53:38;;;;;;;2.22;1.52;;;;;;;16.05;66.47;102149.30;1531694;93;21019;-96
2021/08/24 01:56:27;;;;;;;3.05;1.40;;;;;;;16.01;66.43;102143.45;1531919;93;21059;-96
2021/08/24 01:59:01;;;;;;;3.00;1.50;;;;;;;15.96;66.46;102150.39;1531525;93;21163;-96
2021/08/24 02:01:38;;;;;;;7.30;1.80;;;;;;;15.90;66.46;102150.25;1531599;93;22806;-96
2021/08/24 02:04:14;;;;;;;2.67;1.32;;;;;;;15.84;66.59;102143.02;1516742;94;21033;-96
2021/08/24 02:06:43;;;;;;;3.92;1.55;;;;;;;15.81;66.66;102149.56;1598500;88;21016;-96
2021/08/24 02:09:30;;;;;;;4.17;1.55;;;;;;;15.79;66.73;102150.40;1598794;89;21058;-96
2021/08/24 02:11:58;;;;;;;5.20;1.80;;;;;;;15.74;66.78;102152.48;1653635;86;21020;-96
2021/08/24 02:14:26;;;;;;;2.85;1.55;;;;;;;15.72;66.91;102148.85;1653328;86;21096;-96
2021/08/24 02:16:56;;;;;;;5.75;1.60;;;;;;;15.70;66.91;102153.23;1653777;86;21007;-95
2021/08/24 02:19:32;;;;;;;6.03;1.90;;;;;;;15.68;67.02;102156.71;1653344;86;21052;-96
2021/08/24 02:22:03;;;;;;;3.15;1.82;;;;;;;15.68;67.07;102153.62;1653685;86;21994;-93
2021/08/24 02:24:34;;;;;;;7.15;1.72;;;;;;;15.67;67.06;102153.57;1643981;86;21074;-94
2021/08/24 02:27:02;;;;;;;2.72;1.50;;;;;;;15.63;67.02;102157.01;1653341;86;21786;-94
2021/08/24 02:29:29;;;;;;;5.12;1.98;;;;;;;15.61;67.08;102148.11;1630846;86;21015;-94
2021/08/24 02:32:15;;;;;;;3.67;1.80;;;;;;;15.61;67.09;102147.67;1630844;86;20976;-94
2021/08/24 02:35:05;;;;;;;3.20;1.72;;;;;;;15.67;67.19;102154.50;1653148;86;21063;-95
2021/08/24 02:37:51;;;;;;;2.47;1.47;;;;;;;15.74;67.19;102146.28;1637690;86;21134;-95
2021/08/24 02:40:26;;;;;;;2.95;1.70;;;;;;;15.80;67.09;102147.75;1631675;86;21716;-93
2021/08/24 02:43:15;;;;;;;3.10;1.90;;;;;;;15.86;67.06;102149.27;1649055;86;21036;-94
2021/08/24 02:45:49;;;;;;;5.83;2.02;;;;;;;15.92;66.92;102156.48;1653732;86;21067;-94
2021/08/24 02:48:16;;;;;;;1.87;1.47;;;;;;;15.94;66.90;102150.78;1648326;86;20995;-94
2021/08/24 02:50:43;;;;;;;3.00;1.62;;;;;;;15.96;66.83;102156.14;1631656;86;21521;-96
2021/08/24 02:53:10;;;;;;;3.80;1.60;;;;;;;15.96;66.79;102155.70;1653651;86;21787;-96
2021/08/24 02:55:39;;;;;;;2.85;1.25;;;;;;;15.92;66.75;102152.51;1631652;86;20943;-96
2021/08/24 02:58:06;;;;;;;3.60;1.62;;;;;;;15.89;66.74;102149.76;1653926;86;21020;-96
2021/08/24 03:00:32;;;;;;;3.12;1.32;;;;;;;15.89;66.85;102151.09;1696275;81;21442;-96
2021/08/24 03:02:59;;;;;;;4.40;1.72;;;;;;;15.90;66.88;102150.25;1722825;81;20975;-96
2021/08/24 03:05:29;;;;;;;4.67;2.00;;;;;;;15.92;66.91;102150.73;1719266;81;21745;-94
2021/08/24 03:07:57;;;;;;;4.12;2.22;;;;;;;15.93;66.87;102153.88;1718689;83;21384;-94
2021/08/24 03:10:28;;;;;;;5.33;2.30;;;;;;;15.88;66.83;102151.53;1693938;83;20982;-93
2021/08/24 03:13:19;;;;;;;7.83;2.35;;;;;;;15.82;66.89;102154.03;1672087;83;20982;-94
2021/08/24 03:15:59;;;;;;;4.90;2.20;;;;;;;15.74;66.88;102152.48;1719211;83;21441;-96
2021/08/24 03:18:41;;;;;;;5.67;2.40;;;;;;;15.65;66.96;102148.66;1718569;81;21925;-95
2021/08/24 03:21:11;;;;;;;7.37;2.30;;;;;;;15.54;67.05;102155.92;1719262;83;20954;-94
2021/08/24 03:23:38;;;;;;;4.33;2.20;;;;;;;15.45;67.12;102154.34;1719395;81;21475;-95
2021/08/24 03:26:07;;;;;;;4.53;2.40;;;;;;;15.38;67.28;102155.45;1719494;82;20974;-95
2021/08/24 03:28:36;;;;;;;4.85;2.22;;;;;;;15.33;67.44;102161.94;1689505;84;20987;-95
2021/08/24 03:31:04;;;;;;;4.55;2.50;;;;;;;15.30;67.63;102157.90;1688874;85;20973;-96
2021/08/24 03:33:36;;;;;;;2.60;2.25;;;;;;;15.32;67.72;102160.16;1699767;84;20975;-96
2021/08/24 03:36:07;;;;;;;3.37;2.50;;;;;;;15.36;67.80;102161.60;1689931;85;21217;-96
2021/08/24 03:38:38;;;;;;;6.80;3.00;;;;;;;15.41;67.77;102167.05;1689980;84;21479;-96
2021/08/24 03:41:08;;;;;;;5.33;2.67;;;;;;;15.45;67.78;102172.02;1689040;83;20980;-95
2021/08/24 03:43:35;;;;;;;4.20;2.45;;;;;;;15.47;67.72;102170.30;1689418;83;21757;-94
2021/08/24 03:46:06;;;;;;;4.50;2.55;;;;;;;15.48;67.62;102165.45;1688936;83;20968;-94
2021/08/24 03:48:34;;;;;;;4.40;2.20;;;;;;;15.51;67.57;102165.55;1689256;85;21473;-94
2021/08/24 03:51:05;;;;;;;4.03;2.87;;;;;;;15.55;67.49;102164.77;1664982;84;21213;-93
2021/08/24 03:53:30;;;;;;;5.58;2.70;;;;;;;15.58;67.36;102166.59;1687875;83;21430;-96
2021/08/24 03:55:57;;;;;;;6.12;2.80;;;;;;;15.60;67.29;102165.80;1665736;84;21971;-95
2021/08/24 03:58:26;;;;;;;4.83;2.42;;;;;;;15.64;67.24;102169.44;1699290;83;20957;-94
2021/08/24 04:00:53;;;;;;;5.92;3.58;;;;;;;15.66;67.15;102164.63;1689498;85;20983;-94
2021/08/24 04:03:22;;;;;;;4.05;2.70;;;;;;;15.69;67.07;102174.41;1688338;83;21048;-94
2021/08/24 04:05:49;;;;;;;6.50;3.12;;;;;;;15.73;67.04;102167.95;1698980;83;21000;-96
2021/08/24 04:08:18;;;;;;;7.05;3.75;;;;;;;15.79;66.91;102166.33;1665374;85;21796;-94
2021/08/24 04:10:48;;;;;;;4.35;2.72;;;;;;;15.83;66.76;102171.74;1689105;83;20981;-93
2021/08/24 04:13:29;;;;;;;4.87;2.80;;;;;;;15.89;66.54;102174.55;1698473;83;21022;-91
2021/08/24 04:16:00;;;;;;;4.60;2.43;;;;;;;15.95;66.46;102172.48;1688992;83;21013;-91
2021/08/24 04:18:28;;;;;;;5.20;3.15;;;;;;;16.04;66.35;102175.38;1698156;83;20982;-93
2021/08/24 04:20:58;;;;;;;5.03;2.58;;;;;;;16.10;66.26;102179.53;1688882;85;21772;-91
2021/08/24 04:23:26;;;;;;;3.75;2.42;;;;;;;16.19;66.13;102178.84;1688265;83;21013;-89
2021/08/24 04:25:53;;;;;;;8.18;3.40;;;;;;;16.25;65.88;102176.33;1698240;83;20999;-90
2021/08/24 04:28:24;;;;;;;5.17;2.83;;;;;;;16.24;65.76;102170.56;1688766;83;20981;-91
2021/08/24 04:30:53;;;;;;;3.15;2.55;;;;;;;16.26;65.81;102174.16;1701521;82;21217;-92
2021/08/24 04:33:22;;;;;;;5.95;2.60;;;;;;;16.30;65.69;102173.80;1693739;82;20991;-93
2021/08/24 04:35:52;;;;;;;4.35;2.62;;;;;;;16.32;65.59;102170.30;1711511;83;21072;-91
2021/08/24 04:38:19;;;;;;;5.05;2.75;;;;;;;16.35;65.50;102174.81;1698286;84;20971;-92
2021/08/24 04:40:54;;;;;;;4.40;2.77;;;;;;;16.33;65.43;102173.45;1711739;83;21014;-85
2021/08/24 04:43:20;;;;;;;9.40;3.17;;;;;;;16.36;65.39;102185.01;1697465;83;21050;-86
2021/08/24 04:45:51;;;;;;;6.17;3.12;;;;;;;16.38;65.35;102180.62;1664684;85;21696;-92
2021/08/24 04:48:18;;;;;;;5.45;3.00;;;;;;;16.41;65.27;102182.04;1667771;83;21005;-92
2021/08/24 04:50:46;;;;;;;5.33;3.70;;;;;;;16.43;65.23;102182.97;1688613;83;21539;-93
2021/08/24 04:53:15;;;;;;;6.17;2.90;;;;;;;16.46;65.17;102186.60;1671788;84;21002;-86
2021/08/24 04:55:45;;;;;;;5.72;3.70;;;;;;;16.46;65.08;102184.34;1668597;83;21468;-95
2021/08/24 04:58:20;;;;;;;5.10;3.05;;;;;;;16.46;65.04;102181.69;1674736;83;21994;-91
2021/08/24 05:00:51;;;;;;;5.22;3.00;;;;;;;16.48;64.97;102187.53;1697686;83;21512;-92
2021/08/24 05:03:20;;;;;;;5.20;3.20;;;;;;;16.52;64.98;102196.04;1674512;83;21145;-94
2021/08/24 05:05:50;;;;;;;5.20;2.98;;;;;;;16.60;64.89;102190.90;1672540;84;21016;-91
2021/08/24 05:08:18;;;;;;;4.10;3.17;;;;;;;16.64;64.75;102191.43;1670629;83;21016;-91
2021/08/24 05:10:52;;;;;;;6.60;2.90;;;;;;;16.66;64.70;102188.38;1694264;83;21902;-91
2021/08/24 05:13:18;;;;;;;5.87;2.95;;;;;;;16.68;64.65;102186.64;1717302;82;20986;-92
2021/08/24 05:15:47;;;;;;;3.83;2.40;;;;;;;16.71;64.62;102191.16;1691276;81;21021;-91
2021/08/24 05:18:14;;;;;;;5.58;2.77;;;;;;;16.74;64.57;102188.98;1692854;81;21071;-93
2021/08/24 05:20:42;;;;;;;6.40;2.70;;;;;;;16.72;64.38;102194.27;1713206;81;20982;-93
2021/08/24 05:23:09;;;;;;;4.10;2.30;;;;;;;16.77;64.63;102189.95;1712405;81;22578;-93
2021/08/24 05:25:38;;;;;;;4.08;2.60;;;;;;;16.94;64.53;102191.69;1716902;83;20991;-92
2021/08/24 05:28:06;;;;;;;4.17;2.35;;;;;;;16.96;64.25;102190.40;1679838;83;21031;-93
2021/08/24 05:30:39;;;;;;;4.55;2.30;;;;;;;17.00;63.98;102195.80;1675801;81;22102;-91
2021/08/24 05:33:05;;;;;;;5.20;2.72;;;;;;;17.09;63.93;102195.12;1728717;81;21501;-92
2021/08/24 05:35:32;;;;;;;6.50;2.67;;;;;;;17.21;63.59;102206.03;1728532;81;21748;-91
2021/08/24 05:38:02;;;;;;;7.45;6.40;;;;;;;17.34;63.39;102215.58;1728841;81;20980;-91
2021/08/24 05:40:28;;;;;;;5.03;2.40;;;;;;;17.41;63.08;102210.85;1729643;81;21106;-90
2021/08/24 05:42:59;;;;;;;4.87;2.87;;;;;;;17.49;62.97;102204.83;1690382;82;21576;-91
2021/08/24 05:45:26;;;;;;;5.50;3.30;;;;;;;17.62;62.63;102210.38;1715640;81;21541;-91
2021/08/24 05:47:56;;;;;;;4.75;2.67;;;;;;;17.74;62.49;102207.06;1745104;81;22370;-92
2021/08/24 05:50:26;;;;;;;5.20;2.52;;;;;;;17.74;62.17;102215.05;1720051;81;21493;-91
2021/08/24 05:52:54;;;;;;;4.87;2.77;;;;;;;17.68;62.14;102207.81;1717761;82;21665;-90
2021/08/24 05:55:21;;;;;;;7.25;2.58;;;;;;;17.68;62.09;102207.41;1717680;81;21049;-86
2021/08/24 05:57:48;;;;;;;5.85;2.52;;;;;;;17.76;62.16;102214.65;1725497;81;20992;-89
2021/08/24 06:00:14;;;;;;;4.53;2.40;;;;;;;17.87;61.91;102215.34;1696074;81;22596;-90
2021/08/24 06:02:42;;;;;;;5.50;3.08;;;;;;;17.91;61.62;102204.30;1726807;83;21606;-91
2021/08/24 06:05:09;;;;;;;7.10;3.33;;;;;;;17.91;61.54;102209.63;1732031;81;21025;-91
2021/08/24 06:07:37;;;;;;;6.85;3.20;;;;;;;17.97;61.58;102210.17;1728964;82;20972;-91
2021/08/24 06:10:07;;;;;;;4.53;2.90;;;;;;;18.06;61.06;102239.65;1743729;82;20988;-91
2021/08/24 06:12:36;;;;;;;4.85;3.10;;;;;;;18.06;60.48;102220.55;1713450;81;21734;-92
2021/08/24 06:15:05;;;;;;;6.75;2.98;;;;;;;18.05;60.20;102209.41;1725495;81;21503;-91
2021/08/24 06:17:47;;;;;;;6.58;3.47;;;;;;;17.96;60.05;102221.69;1719889;81;20970;-93
2021/08/24 06:20:09;;;;;;;6.05;2.98;;;;;;;17.86;59.90;102226.84;1738360;81;20951;-92
2021/08/24 06:22:37;;;;;;;5.22;3.52;;;;;;;17.77;59.76;102235.06;1670623;82;20974;-90
2021/08/24 06:25:05;;;;;;;5.62;3.92;;;;;;;17.68;59.61;102238.03;1717556;81;21584;-91
2021/08/24 06:27:36;;;;;;;6.05;3.72;;;;;;;17.62;59.22;102240.99;1727533;81;20970;-91
2021/08/24 06:30:04;;;;;;;5.35;3.40;;;;;;;17.51;59.34;102243.43;1671971;84;21002;-90
2021/08/24 06:32:36;;;;;;;7.72;4.20;;;;;;;17.42;59.31;102249.93;1710523;81;21010;-91
2021/08/24 06:35:03;;;;;;;6.83;3.75;;;;;;;17.35;59.35;102249.33;1687255;82;21000;-91
2021/08/24 06:37:30;;;;;;;8.03;3.87;;;;;;;17.24;59.66;102240.67;1741115;82;21729;-91
2021/08/24 06:39:57;;;;;;;5.78;4.12;;;;;;;17.24;59.72;102239.78;1676439;84;20988;-90
2021/08/24 06:42:24;;;;;;;7.87;3.85;;;;;;;17.29;59.75;102246.11;1676279;84;21503;-91
2021/08/24 06:44:51;;;;;;;7.37;3.80;;;;;;;17.40;59.86;102248.97;1715463;82;21473;-90
2021/08/24 06:47:26;;;;;;;6.42;3.72;;;;;;;17.51;59.68;102244.77;1691836;83;21457;-90
2021/08/24 06:49:54;;;;;;;6.55;3.70;;;;;;;17.55;59.32;102243.98;1666947;84;21024;-91
2021/08/24 06:52:21;;;;;;;6.35;3.80;;;;;;;17.58;59.27;102259.11;1686273;84;21003;-91
2021/08/24 06:54:48;;;;;;;5.25;3.50;;;;;;;17.60;59.20;102244.95;1695532;83;20974;-93
2021/08/24 06:57:17;;;;;;;7.67;3.75;;;;;;;17.71;59.35;102250.49;1749943;81;20959;-91
2021/08/24 06:59:44;;;;;;;13.60;4.30;;;;;;;17.80;59.02;102256.00;1708704;81;21467;-91
2021/08/24 07:02:11;;;;;;;9.20;5.12;;;;;;;17.82;58.66;102250.71;1714139;81;21682;-90
2021/08/24 07:04:37;;;;;;;4.67;3.50;;;;;;;17.76;58.40;102252.83;1691204;83;20958;-91
2021/08/24 07:07:35;;;;;;;8.65;5.03;;;;;;;17.72;58.55;102260.30;1697926;82;21019;-96
2021/08/24 07:10:17;;;;;;;7.10;3.83;;;;;;;17.69;58.63;102259.78;1579852;90;21031;-92
2021/08/24 07:12:44;;;;;;;6.75;4.40;;;;;;;17.69;58.82;102258.45;1588144;88;21706;-88
2021/08/24 07:15:21;;;;;;;8.13;4.17;;;;;;;17.78;58.67;102262.18;1587674;88;49303;-91
2021/08/24 07:17:56;;;;;;;6.62;3.87;;;;;;;17.77;58.64;102257.27;1560508;90;21051;-91
2021/08/24 07:20:28;;;;;;;5.42;3.30;;;;;;;17.82;58.43;102258.26;1560587;89;21047;-88
2021/08/24 07:22:57;;;;;;;;;;;;;;;17.90;58.36;102273.09;1584407;88;21053;-87
2021/08/24 07:25:25;;;;;;;7.12;3.37;;;;;;;17.88;58.12;102262.39;1622470;86;20156;-88
2021/08/24 07:27:52;;;;;;;8.28;3.60;;;;;;;17.90;58.12;102289.52;1623355;87;21762;-87
2021/08/24 07:30:20;;;;;;;11.88;3.83;;;;;;;17.86;57.93;102274.79;1638718;86;21014;-86
2021/08/24 07:32:47;;;;;;;7.83;4.97;;;;;;;18.01;58.10;102273.30;1643969;87;21007;-89
2021/08/24 07:35:14;;;;;;;5.72;2.95;;;;;;;18.18;57.63;102273.16;1611235;86;21634;-88
2021/08/24 07:37:40;;;;;;;6.05;4.78;;;;;;;18.17;57.15;102307.77;1640274;85;22095;-87
2021/08/24 07:40:10;;;;;;;5.17;3.75;;;;;;;18.16;57.10;102288.67;1621292;87;21052;-87
2021/08/24 07:42:37;;;;;;;5.08;3.65;;;;;;;18.19;56.91;102288.73;1613840;86;21030;-87
2021/08/24 07:45:07;;;;;;;6.30;3.20;;;;;;;18.26;56.48;102287.55;1639963;87;21047;-87
2021/08/24 07:47:33;;;;;;;8.25;4.40;;;;;;;18.42;56.42;102284.69;1691936;82;21485;-87
2021/08/24 07:50:16;;;;;;;7.80;3.47;;;;;;;18.47;56.16;102291.45;1718072;81;21480;-87
2021/08/24 07:52:35;;;;;;;4.28;3.10;;;;;;;18.57;56.22;102286.72;1731912;82;21784;-87
2021/08/24 07:55:05;;;;;;;4.40;2.95;;;;;;;18.56;55.66;102294.69;1722552;81;21015;-87
2021/08/24 07:57:37;;;;;;;5.67;3.30;;;;;;;18.51;55.54;102295.96;1719718;81;21002;-87
2021/08/24 08:00:06;;;;;;;5.95;3.75;;;;;;;18.53;55.28;102294.22;1687473;82;21029;-87
2021/08/24 08:02:35;;;;;;;4.72;3.02;;;;;;;18.58;55.44;102304.94;1709522;82;21457;-87
2021/08/24 08:05:06;;;;;;;5.58;3.20;;;;;;;18.70;55.33;102302.94;1705635;83;20950;-87
2021/08/24 08:07:37;;;;;;;3.83;2.47;;;;;;;18.88;54.95;102303.68;1667226;83;21500;-87
2021/08/24 08:10:06;;;;;;;7.00;3.42;;;;;;;19.07;54.73;102298.17;1678359;83;21048;-88
2021/08/24 08:12:55;;;;;;;6.95;3.30;;;;;;;19.14;54.85;102317.41;1668183;84;21183;-87
2021/08/24 08:15:15;;;;;;;5.97;3.10;;;;;;;19.25;54.41;102302.45;1679960;82;21092;-88
2021/08/24 08:17:41;;;;;;;6.00;3.77;;;;;;;19.30;53.76;102313.21;1732677;82;22422;-87
2021/08/24 08:20:11;;;;;;;8.43;3.00;;;;;;;19.31;53.59;102314.98;1699761;82;21469;-87
2021/08/24 08:22:38;;;;;;;5.42;2.80;;;;;;;19.21;53.26;102297.50;1700590;84;20966;-87
2021/08/24 08:25:10;;;;;;;4.55;3.10;;;;;;;19.07;53.07;102323.12;1691904;82;21023;-87
2021/08/24 08:27:37;;;;;;;7.37;2.95;;;;;;;19.02;53.26;102315.47;1699336;82;21062;-87
2021/08/24 08:30:08;;;;;;;7.00;3.10;;;;;;;19.02;53.19;102308.36;1731556;82;22343;-86
2021/08/24 08:32:35;;;;;;;4.55;2.80;;;;;;;18.93;52.68;102318.00;1704156;82;21444;-87
2021/08/24 08:35:04;;;;;;;8.48;3.17;;;;;;;18.79;52.88;102313.76;1650801;82;21606;-87
2021/08/24 08:37:31;;;;;;;8.23;3.08;;;;;;;18.64;52.51;102327.30;1692740;82;20989;-87
2021/08/24 08:39:57;;;;;;;5.85;2.98;;;;;;;18.52;52.90;102333.73;1703798;82;21063;-86
2021/08/24 08:42:35;;;;;;;9.60;3.52;;;;;;;18.41;52.90;102344.64;1676219;85;21771;-87
2021/08/24 08:45:18;;;;;;;5.47;3.52;;;;;;;18.32;52.97;102326.73;1706171;82;20996;-88
2021/08/24 08:48:19;;;;;;;4.62;2.77;;;;;;;18.29;53.15;102331.11;1657603;85;21018;-86
2021/08/24 08:50:58;;;;;;;5.55;3.37;;;;;;;18.36;53.35;102323.70;1706583;81;21463;-86
2021/08/24 08:53:47;;;;;;;5.05;3.08;;;;;;;18.52;53.17;102339.52;1714781;81;21078;-86
2021/08/24 08:56:33;;;;;;;6.05;3.25;;;;;;;18.52;52.90;102335.52;1724480;81;21912;-87
2021/08/24 08:59:25;;;;;;;8.95;3.27;;;;;;;18.55;52.64;102322.25;1702011;81;20985;-87
2021/08/24 09:02:21;;;;;;;7.50;3.80;;;;;;;18.49;52.54;102336.37;1679506;83;21021;-87
2021/08/24 09:04:51;;;;;;;4.10;2.92;;;;;;;18.57;52.91;102335.16;1667278;81;21004;-87
2021/08/24 09:07:35;;;;;;;3.95;2.92;;;;;;;18.91;52.36;102345.09;1699816;82;21082;-87
2021/08/24 09:10:04;;;;;;;5.47;2.80;;;;;;;19.04;52.44;102339.97;1673060;84;21853;-84
2021/08/24 09:12:31;;;;;;;12.65;3.70;;;;;;;19.25;52.05;102332.27;1694015;82;21017;-85
2021/08/24 09:14:57;;;;;;;5.35;3.00;;;;;;;19.47;51.93;102333.47;1718633;83;21035;-86
2021/08/24 09:17:37;;;;;;;4.97;3.08;;;;;;;19.61;51.86;102347.88;1725886;80;20986;-86
2021/08/24 09:20:16;;;;;;;6.72;2.87;;;;;;;19.69;51.36;102346.64;1700895;82;21000;-86
2021/08/24 09:22:44;;;;;;;15.32;4.33;;;;;;;19.63;50.99;102332.77;1735102;81;21739;-85
2021/08/24 09:25:18;;;;;;;5.83;2.87;;;;;;;19.58;50.80;102332.72;1725116;81;20969;-85
2021/08/24 09:28:07;;;;;;;7.75;3.45;;;;;;;19.71;50.78;102327.10;1743446;81;20975;-86
2021/08/24 09:30:33;;;;;;;11.35;2.85;;;;;;;19.96;50.51;102324.30;1721901;81;21032;-85
2021/08/24 09:33:05;;;;;;;8.53;3.58;;;;;;;20.23;50.30;102337.95;1721562;81;21160;-86
2021/08/24 09:35:42;;;;;;;10.58;3.12;;;;;;;20.28;49.86;102350.48;1682852;82;22777;-86
2021/08/24 09:38:25;;;;;;;7.42;3.40;;;;;;;20.15;49.54;102332.52;1659557;85;21045;-85
2021/08/24 09:40:53;;;;;;;6.60;3.65;;;;;;;19.97;49.10;102331.45;1707701;82;20983;-86
2021/08/24 09:43:28;;;;;;;4.97;3.27;;;;;;;19.74;48.55;102344.52;1730474;81;20960;-86
2021/08/24 09:46:18;;;;;;;5.58;3.37;;;;;;;19.45;48.44;102348.13;1667663;84;21037;-86
2021/08/24 09:49:10;;;;;;;4.10;2.75;;;;;;;19.21;48.56;102328.20;1680981;85;21753;-86
2021/08/24 09:51:48;;;;;;;4.67;3.00;;;;;;;19.03;49.04;102327.92;1600449;87;20982;-86
2021/08/24 09:54:50;;;;;;;5.47;2.85;;;;;;;19.15;49.12;102346.80;1623767;87;21066;-85
2021/08/24 09:57:22;;;;;;;8.45;4.17;;;;;;;19.23;48.46;102338.46;1629653;86;21054;-86
2021/08/24 10:00:09;;;;;;;5.05;3.37;;;;;;;19.26;48.48;102334.96;1637788;86;21019;-86
2021/08/24 10:02:41;;;;;;;8.53;4.03;;;;;;;19.17;48.39;102323.70;1644677;85;21758;-85
2021/08/24 10:05:24;;;;;;;8.98;4.62;;;;;;;19.22;48.55;102332.69;1625495;86;20992;-86
2021/08/24 10:07:54;;;;;;;5.55;4.25;;;;;;;19.22;48.84;102321.12;1625400;86;21123;-86
2021/08/24 10:10:35;;;;;;;8.80;3.77;;;;;;;19.13;48.44;102327.66;1618358;86;21569;-86
2021/08/24 10:13:38;;;;;;;7.58;4.37;;;;;;;19.12;48.87;102337.85;1606586;89;21145;-86
2021/08/24 10:16:29;;;;;;;8.25;4.10;;;;;;;19.10;48.98;102322.26;1630820;87;21784;-84
2021/08/24 10:19:10;;;;;;;9.55;4.65;;;;;;;18.92;49.22;102333.12;1622995;88;21063;-84
2021/08/24 10:21:53;;;;;;;11.10;4.65;;;;;;;18.90;49.63;102333.95;1630173;88;21484;-84
2021/08/24 10:24:31;;;;;;;7.97;3.92;;;;;;;18.96;49.66;102310.05;1630560;88;21123;-84
2021/08/24 10:27:01;;;;;;;5.42;3.92;;;;;;;19.13;49.66;102315.64;1653182;83;21046;-84
2021/08/24 10:29:31;;;;;;;6.37;3.85;;;;;;;19.06;49.54;102318.64;1726229;82;21690;-84
2021/08/24 10:32:07;;;;;;;10.35;5.08;;;;;;;19.04;49.41;102326.62;1717312;81;21017;-85
2021/08/24 10:34:43;;;;;;;13.25;4.35;;;;;;;18.99;49.10;102340.31;1729865;81;21680;-85
2021/08/24 10:37:32;;;;;;;8.38;4.55;;;;;;;19.00;49.12;102336.79;1732785;81;21516;-85
2021/08/24 10:40:13;;;;;;;8.88;5.17;;;;;;;19.02;48.79;102322.14;1756113;81;21492;-84
2021/08/24 10:42:58;;;;;;;7.05;4.40;;;;;;;19.03;48.21;102337.27;1756160;81;21792;-84
2021/08/24 10:45:31;;;;;;;9.38;4.70;;;;;;;18.88;48.25;102325.02;1729268;81;21026;-85
2021/08/24 10:48:04;;;;;;;11.43;4.45;;;;;;;18.71;47.84;102325.61;1725946;81;20951;-85
2021/08/24 10:50:59;;;;;;;5.92;4.20;;;;;;;18.53;47.81;102335.99;1742808;80;21039;-85
2021/08/24 10:53:34;;;;;;;8.48;4.40;;;;;;;18.48;47.95;102332.34;1744239;81;20964;-85
2021/08/24 10:56:23;;;;;;;7.00;3.87;;;;;;;18.55;48.13;102319.13;1754811;80;21717;-84
2021/08/24 10:59:26;;;;;;;5.47;3.58;;;;;;;18.72;48.11;102311.41;1722810;82;20969;-85
2021/08/24 11:02:03;;;;;;;10.72;4.25;;;;;;;18.79;47.81;102320.42;1716734;82;20974;-84
2021/08/24 11:04:53;;;;;;;9.05;4.95;;;;;;;18.79;47.91;102323.98;1717735;83;20978;-85
2021/08/24 11:07:55;;;;;;;8.13;4.22;;;;;;;18.80;47.74;102316.45;1717169;81;21026;-85
2021/08/24 11:10:31;;;;;;;8.78;4.75;;;;;;;18.73;47.43;102336.31;1717152;81;22051;-85
2021/08/24 11:13:27;;;;;;;7.25;4.45;;;;;;;18.39;47.45;102324.66;1717681;81;21495;-84
2021/08/24 11:16:23;;;;;;;10.93;4.80;;;;;;;18.35;47.79;102324.55;1717698;83;21109;-85
2021/08/24 11:18:54;;;;;;;9.55;4.90;;;;;;;18.39;47.28;102353.98;1717842;83;21205;-85
2021/08/24 11:21:30;;;;;;;8.33;5.37;;;;;;;18.47;47.41;102360.78;1717078;82;21009;-85
2021/08/24 11:24:11;;;;;;;7.80;4.95;;;;;;;18.55;47.07;102319.13;1721699;81;21722;-85
2021/08/24 11:27:21;;;;;;;8.88;5.00;;;;;;;18.57;46.16;102323.16;1718784;81;21044;-85
2021/08/24 11:29:51;;;;;;;8.95;5.22;;;;;;;18.71;46.94;102342.05;1722358;81;21024;-85
2021/08/24 11:32:23;;;;;;;8.78;5.05;;;;;;;18.81;46.55;102335.61;1694556;82;21021;-85
2021/08/24 11:35:04;;;;;;;13.72;5.50;;;;;;;18.79;46.56;102335.98;1692991;83;21003;-85
2021/08/24 11:37:36;;;;;;;8.85;5.30;;;;;;;18.87;47.03;102332.14;1690116;83;21769;-85
2021/08/24 11:40:09;;;;;;;12.13;7.15;;;;;;;19.05;47.03;102318.20;1688586;83;21029;-85
2021/08/24 11:42:43;;;;;;;8.18;5.92;;;;;;;19.14;46.60;102320.09;1729246;83;21508;-85
2021/08/24 11:45:24;;;;;;;7.08;4.50;;;;;;;19.11;46.79;102307.61;1729239;83;21049;-85
2021/08/24 11:48:01;;;;;;;9.85;5.65;;;;;;;19.21;46.66;102327.31;1729066;82;21556;-85
2021/08/24 11:50:52;;;;;;;9.38;6.05;;;;;;;19.29;46.47;102334.09;1700308;83;21801;-85
2021/08/24 11:53:51;;;;;;;9.30;5.45;;;;;;;19.23;46.52;102322.44;1691911;83;21451;-85
2021/08/24 11:57:02;;;;;;;9.03;4.58;;;;;;;19.10;46.51;102324.92;1697007;81;20987;-85